createdAt,value
2022-08-02T00:00:13.080Z,101766.06
2022-08-02T00:03:13.626Z,101765.22
2022-08-02T00:06:20.040Z,101765.22
2022-08-02T00:09:22.529Z,101773.03
2022-08-02T00:12:30.343Z,101768.72
2022-08-02T00:15:47.156Z,101768.72
2022-08-02T00:18:54.312Z,101773.91
2022-08-02T00:21:54.461Z,101767.00
2022-08-02T00:25:06.362Z,101767.03
2022-08-02T00:28:11.830Z,101762.69
2022-08-02T00:31:21.260Z,101750.59
2022-08-02T00:34:30.266Z,101743.66
2022-08-02T00:37:40.047Z,101750.59
2022-08-02T00:40:40.371Z,101750.66
2022-08-02T00:43:47.375Z,101755.00
2022-08-02T00:46:50.233Z,101757.59
2022-08-02T00:49:59.795Z,101765.38
2022-08-02T00:53:00.449Z,101768.00
2022-08-02T00:56:06.118Z,101769.75
2022-08-02T00:59:06.744Z,101771.50
2022-08-02T01:02:18.257Z,101783.56
2022-08-02T01:05:19.558Z,101779.25
2022-08-02T01:08:29.457Z,101779.25
2022-08-02T01:11:35.380Z,101786.19
2022-08-02T01:14:43.380Z,101781.00
2022-08-02T01:17:53.320Z,101784.47
2022-08-02T01:21:24.155Z,101784.44
2022-08-02T01:24:38.126Z,101781.00
2022-08-02T01:28:00.108Z,101787.91
2022-08-02T01:31:19.047Z,101788.78
2022-08-02T01:34:31.108Z,101784.47
2022-08-02T01:37:39.249Z,101785.31
2022-08-02T01:40:52.043Z,101785.31
2022-08-02T01:43:53.960Z,101783.59
2022-08-02T01:47:09.676Z,101787.03
2022-08-02T01:50:17.789Z,101778.41
2022-08-02T01:53:35.074Z,101788.78
2022-08-02T01:56:37.648Z,101785.31
2022-08-02T01:59:52.447Z,101786.19
2022-08-02T02:02:56.706Z,101787.94
2022-08-02T02:06:09.324Z,101792.22
2022-08-02T02:09:16.156Z,101795.69
2022-08-02T02:12:25.954Z,101797.41
2022-08-02T02:15:33.554Z,101800.00
2022-08-02T02:18:47.921Z,101800.91
2022-08-02T02:21:48.285Z,101794.81
2022-08-02T02:24:58.274Z,101794.81
2022-08-02T02:28:07.580Z,101783.59
2022-08-02T02:31:19.838Z,101779.28
2022-08-02T02:34:33.131Z,101774.13
2022-08-02T02:37:44.036Z,101774.06
2022-08-02T02:40:46.482Z,101768.03
2022-08-02T02:43:58.037Z,101761.13
2022-08-02T02:47:01.773Z,101757.69
2022-08-02T02:50:11.183Z,101760.25
2022-08-02T02:53:17.046Z,101761.13
2022-08-02T02:56:30.193Z,101750.78
2022-08-02T02:59:31.857Z,101757.69
2022-08-02T03:02:47.559Z,101755.09
2022-08-02T03:05:51.760Z,101749.88
2022-08-02T03:09:04.011Z,101755.94
2022-08-02T03:12:08.800Z,101758.53
2022-08-02T03:15:16.210Z,101757.69
2022-08-02T03:18:21.451Z,101755.06
2022-08-02T03:21:31.449Z,101753.31
2022-08-02T03:24:34.734Z,101748.16
2022-08-02T03:27:43.100Z,101754.22
2022-08-02T03:30:43.468Z,101753.34
2022-08-02T06:22:34.458Z,101741.22
2022-08-02T06:25:51.104Z,101743.47
2022-08-02T06:28:48.450Z,101751.22
2022-08-02T06:31:50.015Z,101750.84
2022-08-02T06:35:03.432Z,101744.94
2022-08-02T06:38:14.579Z,101744.63
2022-08-02T06:41:23.337Z,101742.88
2022-08-02T06:44:47.680Z,101751.53
2022-08-02T06:47:56.520Z,101745.41
2022-08-02T06:50:56.529Z,101740.97
2022-08-02T06:54:07.451Z,101740.53
2022-08-02T06:57:11.126Z,101736.47
2022-08-02T07:00:32.163Z,101738.22
2022-08-02T07:03:43.676Z,101744.25
2022-08-02T07:20:07.852Z,101731.63
2022-08-02T07:24:22.807Z,101715.19
2022-08-02T07:27:30.334Z,101708.25
2022-08-02T07:30:40.388Z,101711.13
2022-08-02T07:33:43.370Z,101710.88
2022-08-02T07:36:55.000Z,101712.38
2022-08-02T07:39:55.298Z,101711.66
2022-08-02T07:46:29.088Z,101710.97
2022-08-02T07:49:32.463Z,101718.53
2022-08-02T07:52:41.194Z,101716.50
2022-08-02T07:55:44.172Z,101712.72
2022-08-02T07:58:58.413Z,101714.94
2022-08-02T08:02:02.223Z,101710.13
2022-08-02T08:05:15.841Z,101711.66
2022-08-02T08:08:17.959Z,101704.06
2022-08-02T08:11:31.529Z,101696.13
2022-08-02T08:14:38.010Z,101703.31
2022-08-02T08:21:04.349Z,101680.06
2022-08-02T08:24:18.491Z,101676.69
2022-08-02T08:27:29.406Z,101667.69
2022-08-02T08:30:37.128Z,101653.09
2022-08-02T08:33:41.366Z,101663.22
2022-08-02T08:36:48.789Z,101644.56
2022-08-02T08:39:57.836Z,101642.41
2022-08-02T08:43:07.212Z,101651.22
2022-08-02T08:46:13.611Z,101655.06
2022-08-02T08:49:53.391Z,101651.16
2022-08-02T08:52:59.415Z,101646.50
2022-08-02T08:56:08.910Z,101639.88
2022-08-02T08:59:12.896Z,101658.44
2022-08-02T09:02:29.257Z,101650.72
2022-08-02T09:05:36.491Z,101639.03
2022-08-02T09:08:43.070Z,101652.06
2022-08-02T09:11:46.106Z,101647.66
2022-08-02T09:14:58.369Z,101644.09
2022-08-02T09:18:02.270Z,101643.41
2022-08-02T09:21:14.500Z,101645.47
2022-08-02T09:24:24.069Z,101642.84
2022-08-02T09:27:36.096Z,101631.63
2022-08-02T09:30:46.546Z,101625.63
2022-08-02T09:33:55.225Z,101618.34
2022-08-02T09:36:55.140Z,101621.41
2022-08-02T09:40:03.151Z,101615.94
2022-08-02T09:43:09.906Z,101628.00
2022-08-02T09:46:31.585Z,101632.78
2022-08-02T09:49:37.326Z,101630.03
2022-08-02T09:52:47.652Z,101625.91
2022-08-02T09:56:02.353Z,101620.56
2022-08-02T09:59:16.202Z,101620.53
2022-08-02T10:02:23.117Z,101630.44
2022-08-02T10:05:37.929Z,101625.09
2022-08-02T10:08:51.232Z,101621.91
2022-08-02T10:12:11.265Z,101615.97
2022-08-02T10:15:27.640Z,101624.81
2022-08-02T10:18:40.342Z,101626.25
2022-08-02T10:21:52.006Z,101613.63
2022-08-02T10:25:07.706Z,101613.88
2022-08-02T10:28:16.901Z,101614.84
2022-08-02T10:31:35.441Z,101619.19
2022-08-02T10:34:43.998Z,101624.56
2022-08-02T10:41:53.471Z,101586.22
2022-08-02T10:45:25.950Z,101593.03
2022-08-02T10:48:38.428Z,101587.16
2022-08-02T11:10:05.894Z,101567.59
2022-08-02T21:11:51.778Z,101355.91
2022-08-02T21:41:39.550Z,101335.81
2022-08-02T21:54:16.810Z,101343.22
2022-08-02T21:57:47.648Z,101345.16
2022-08-02T22:01:35.571Z,101340.53
2022-08-02T22:04:47.645Z,101346.72
2022-08-02T22:07:50.528Z,101345.13
2022-08-02T22:25:37.872Z,101361.22
2022-08-02T22:28:59.683Z,101351.44
2022-08-02T22:32:21.845Z,101351.59
2022-08-02T22:35:47.540Z,101351.44
2022-08-02T22:38:52.912Z,101360.38
2022-08-02T22:42:08.835Z,101356.19
2022-08-02T22:59:10.496Z,101352.47
2022-08-02T23:11:46.060Z,101358.44
2022-08-02T23:14:54.806Z,101360.16
2022-08-02T23:18:14.411Z,101353.19
2022-08-02T23:22:01.391Z,101351.03
2022-08-02T23:25:01.590Z,101346.88
2022-08-02T23:28:18.901Z,101342.81
2022-08-02T23:31:37.535Z,101349.56
2022-08-02T23:34:50.344Z,101344.88
2022-08-02T23:38:03.163Z,101341.84
2022-08-02T23:41:38.461Z,101336.16
2022-08-02T23:44:45.617Z,101345.16
2022-08-02T23:48:36.204Z,101343.84
2022-08-02T23:52:07.306Z,101340.97
2022-08-02T23:55:36.397Z,101347.59
